sensor_id;sensor_type;location;lat;lon;timestamp;pressure;altitude;pressure_sealevel;temperature;humidity
23433;BME280;41331;45.412;10.992;2023-08-07T00:02:18;100276.81;;;20.72;72.53
23433;BME280;41331;45.412;10.992;2023-08-07T00:04:45;100274.88;;;20.65;72.20
23433;BME280;41331;45.412;10.992;2023-08-07T00:07:13;100275.63;;;20.73;72.02
23433;BME280;41331;45.412;10.992;2023-08-07T00:09:41;100278.38;;;20.73;71.90
23433;BME280;41331;45.412;10.992;2023-08-07T00:12:09;100282.38;;;20.68;71.77
23433;BME280;41331;45.412;10.992;2023-08-07T00:14:36;100287.88;;;20.76;71.43
23433;BME280;41331;45.412;10.992;2023-08-07T00:17:07;100283.94;;;20.66;71.04
23433;BME280;41331;45.412;10.992;2023-08-07T00:19:35;100287.94;;;20.40;71.67
23433;BME280;41331;45.412;10.992;2023-08-07T00:22:03;100282.03;;;20.49;71.90
23433;BME280;41331;45.412;10.992;2023-08-07T00:24:30;100287.94;;;20.51;72.12
23433;BME280;41331;45.412;10.992;2023-08-07T00:26:58;100291.88;;;20.60;72.10
23433;BME280;41331;45.412;10.992;2023-08-07T00:29:25;100293.81;;;20.67;71.79
23433;BME280;41331;45.412;10.992;2023-08-07T00:31:52;100302.94;;;20.53;72.90
23433;BME280;41331;45.412;10.992;2023-08-07T00:34:23;100304.53;;;20.54;73.56
23433;BME280;41331;45.412;10.992;2023-08-07T00:36:50;100303.75;;;20.32;73.25
23433;BME280;41331;45.412;10.992;2023-08-07T00:39:17;100311.28;;;20.28;74.05
23433;BME280;41331;45.412;10.992;2023-08-07T00:41:45;100302.97;;;20.21;74.24
23433;BME280;41331;45.412;10.992;2023-08-07T00:44:12;100295.84;;;20.38;73.91
23433;BME280;41331;45.412;10.992;2023-08-07T00:46:40;100298.22;;;20.36;73.40
23433;BME280;41331;45.412;10.992;2023-08-07T00:49:09;100303.72;;;20.43;73.21
23433;BME280;41331;45.412;10.992;2023-08-07T00:51:42;100295.06;;;20.48;73.03
23433;BME280;41331;45.412;10.992;2023-08-07T00:54:11;100293.47;;;20.43;73.37
23433;BME280;41331;45.412;10.992;2023-08-07T00:56:41;100299.78;;;20.55;73.19
23433;BME280;41331;45.412;10.992;2023-08-07T00:59:11;100295.78;;;20.63;73.81
23433;BME280;41331;45.412;10.992;2023-08-07T01:01:42;100285.91;;;20.73;74.42
23433;BME280;41331;45.412;10.992;2023-08-07T01:04:09;100283.06;;;20.87;74.27
23433;BME280;41331;45.412;10.992;2023-08-07T01:06:37;100286.19;;;20.96;74.30
23433;BME280;41331;45.412;10.992;2023-08-07T01:09:04;100284.31;;;20.72;74.65
23433;BME280;41331;45.412;10.992;2023-08-07T01:17:06;100282.81;;;20.46;76.35
23433;BME280;41331;45.412;10.992;2023-08-07T01:19:35;100298.25;;;20.25;78.41
23433;BME280;41331;45.412;10.992;2023-08-07T01:22:07;100291.13;;;20.35;77.63
23433;BME280;41331;45.412;10.992;2023-08-07T01:24:35;100289.56;;;20.30;77.68
23433;BME280;41331;45.412;10.992;2023-08-07T01:32:56;100297.47;;;20.21;76.38
23433;BME280;41331;45.412;10.992;2023-08-07T01:35:28;100287.19;;;20.22;76.67
23433;BME280;41331;45.412;10.992;2023-08-07T01:37:57;100284.41;;;20.18;76.64
23433;BME280;41331;45.412;10.992;2023-08-07T01:40:27;100289.56;;;20.16;77.37
23433;BME280;41331;45.412;10.992;2023-08-07T01:42:55;100285.63;;;20.21;77.24
23433;BME280;41331;45.412;10.992;2023-08-07T01:45:27;100278.09;;;20.32;76.53
23433;BME280;41331;45.412;10.992;2023-08-07T01:47:55;100292.34;;;20.20;77.45
23433;BME280;41331;45.412;10.992;2023-08-07T01:50:24;100296.25;;;20.36;77.02
23433;BME280;41331;45.412;10.992;2023-08-07T01:52:52;100293.06;;;20.41;76.23
23433;BME280;41331;45.412;10.992;2023-08-07T01:55:21;100283.63;;;20.35;77.65
23433;BME280;41331;45.412;10.992;2023-08-07T01:57:51;100284.41;;;20.32;77.52
23433;BME280;41331;45.412;10.992;2023-08-07T02:00:20;100297.03;;;20.44;76.94
23433;BME280;41331;45.412;10.992;2023-08-07T02:02:48;100308.09;;;20.33;78.19
23433;BME280;41331;45.412;10.992;2023-08-07T02:05:16;100311.69;;;20.09;78.59
23433;BME280;41331;45.412;10.992;2023-08-07T02:07:44;100316.81;;;19.92;78.21
23433;BME280;41331;45.412;10.992;2023-08-07T02:10:11;100318.81;;;19.88;78.83
23433;BME280;41331;45.412;10.992;2023-08-07T02:12:38;100322.34;;;19.89;78.89
23433;BME280;41331;45.412;10.992;2023-08-07T02:15:06;100321.56;;;19.88;81.20
23433;BME280;41331;45.412;10.992;2023-08-07T02:17:34;100320.75;;;19.63;82.49
23433;BME280;41331;45.412;10.992;2023-08-07T02:20:03;100321.88;;;19.55;83.20
23433;BME280;41331;45.412;10.992;2023-08-07T02:22:32;100321.47;;;19.53;83.45
23433;BME280;41331;45.412;10.992;2023-08-07T02:25:00;100320.31;;;19.54;83.69
23433;BME280;41331;45.412;10.992;2023-08-07T02:27:27;100319.97;;;19.73;82.72
23433;BME280;41331;45.412;10.992;2023-08-07T02:29:55;100319.59;;;19.78;82.98
23433;BME280;41331;45.412;10.992;2023-08-07T02:32:23;100319.53;;;19.53;84.17
23433;BME280;41331;45.412;10.992;2023-08-07T02:34:54;100325.81;;;19.47;84.77
23433;BME280;41331;45.412;10.992;2023-08-07T02:37:24;100325.09;;;19.82;81.81
23433;BME280;41331;45.412;10.992;2023-08-07T02:39:51;100314.38;;;19.52;83.38
23433;BME280;41331;45.412;10.992;2023-08-07T02:42:20;100321.88;;;19.55;83.36
23433;BME280;41331;45.412;10.992;2023-08-07T02:44:48;100319.53;;;19.53;83.32
23433;BME280;41331;45.412;10.992;2023-08-07T02:47:15;100315.22;;;19.66;82.29
23433;BME280;41331;45.412;10.992;2023-08-07T02:49:42;100310.84;;;19.55;82.62
23433;BME280;41331;45.412;10.992;2023-08-07T02:52:10;100314.78;;;19.57;82.49
23433;BME280;41331;45.412;10.992;2023-08-07T02:54:37;100318.34;;;19.58;83.98
23433;BME280;41331;45.412;10.992;2023-08-07T02:57:08;100314.00;;;19.50;84.96
23433;BME280;41331;45.412;10.992;2023-08-07T02:59:35;100315.53;;;19.36;84.73
23433;BME280;41331;45.412;10.992;2023-08-07T03:02:03;100305.28;;;19.30;86.34
23433;BME280;41331;45.412;10.992;2023-08-07T03:04:30;100308.06;;;19.40;85.00
23433;BME280;41331;45.412;10.992;2023-08-07T03:06:58;100310.44;;;19.38;84.61
23433;BME280;41331;45.412;10.992;2023-08-07T03:09:26;100307.34;;;19.65;84.08
23433;BME280;41331;45.412;10.992;2023-08-07T03:11:53;100302.97;;;19.53;83.38
23433;BME280;41331;45.412;10.992;2023-08-07T03:14:21;100311.22;;;19.39;84.53
23433;BME280;41331;45.412;10.992;2023-08-07T03:16:48;100314.75;;;19.39;84.62
23433;BME280;41331;45.412;10.992;2023-08-07T03:19:16;100317.09;;;19.37;83.99
23433;BME280;41331;45.412;10.992;2023-08-07T03:21:43;100311.97;;;19.36;82.98
23433;BME280;41331;45.412;10.992;2023-08-07T03:24:14;100310.44;;;19.38;84.13
23433;BME280;41331;45.412;10.992;2023-08-07T03:26:41;100307.56;;;19.06;81.40
23433;BME280;41331;45.412;10.992;2023-08-07T03:29:09;100309.09;;;18.97;81.79
23433;BME280;41331;45.412;10.992;2023-08-07T03:31:37;100301.59;;;18.90;75.45
23433;BME280;41331;45.412;10.992;2023-08-07T03:34:05;100313.63;;;18.60;72.25
23433;BME280;41331;45.412;10.992;2023-08-07T03:36:33;100321.84;;;18.50;69.05
23433;BME280;41331;45.412;10.992;2023-08-07T03:39:00;100335.25;;;18.55;72.60
23433;BME280;41331;45.412;10.992;2023-08-07T03:41:28;100335.22;;;18.51;70.06
23433;BME280;41331;45.412;10.992;2023-08-07T03:43:57;100322.97;;;18.42;69.62
23433;BME280;41331;45.412;10.992;2023-08-07T03:46:24;100335.56;;;18.39;66.14
23433;BME280;41331;45.412;10.992;2023-08-07T03:48:54;100330.38;;;18.30;69.12
23433;BME280;41331;45.412;10.992;2023-08-07T03:51:23;100341.19;;;18.05;68.64
23433;BME280;41331;45.412;10.992;2023-08-07T03:53:54;100341.84;;;17.88;68.92
23433;BME280;41331;45.412;10.992;2023-08-07T03:56:22;100346.44;;;17.73;70.17
23433;BME280;41331;45.412;10.992;2023-08-07T03:58:50;100342.50;;;17.74;69.87
23433;BME280;41331;45.412;10.992;2023-08-07T04:01:20;100339.09;;;17.51;70.68
23433;BME280;41331;45.412;10.992;2023-08-07T04:03:49;100336.78;;;17.56;71.88
23433;BME280;41331;45.412;10.992;2023-08-07T04:06:16;100340.38;;;17.98;69.97
23433;BME280;41331;45.412;10.992;2023-08-07T04:08:47;100347.94;;;18.08;71.31
23433;BME280;41331;45.412;10.992;2023-08-07T04:11:15;100349.44;;;18.02;74.79
23433;BME280;41331;45.412;10.992;2023-08-07T04:13:42;100346.91;;;17.82;76.25
23433;BME280;41331;45.412;10.992;2023-08-07T04:16:10;100354.34;;;17.78;76.54
23433;BME280;41331;45.412;10.992;2023-08-07T04:18:38;100351.88;;;17.70;78.53
23433;BME280;41331;45.412;10.992;2023-08-07T04:21:05;100359.19;;;17.92;76.61
23433;BME280;41331;45.412;10.992;2023-08-07T04:23:33;100356.09;;;18.01;75.07
23433;BME280;41331;45.412;10.992;2023-08-07T04:26:00;100356.63;;;18.14;75.68
23433;BME280;41331;45.412;10.992;2023-08-07T04:28:28;100357.03;;;18.16;75.22
23433;BME280;41331;45.412;10.992;2023-08-07T04:30:56;100356.38;;;18.36;74.14
23433;BME280;41331;45.412;10.992;2023-08-07T04:33:23;100360.75;;;18.37;74.05
23433;BME280;41331;45.412;10.992;2023-08-07T04:35:51;100356.19;;;18.63;73.00
23433;BME280;41331;45.412;10.992;2023-08-07T04:38:19;100354.09;;;18.46;73.80
23433;BME280;41331;45.412;10.992;2023-08-07T04:40:48;100345.09;;;18.56;75.49
23433;BME280;41331;45.412;10.992;2023-08-07T04:43:17;100349.34;;;18.39;75.64
23433;BME280;41331;45.412;10.992;2023-08-07T04:45:45;100364.66;;;18.33;75.78
23433;BME280;41331;45.412;10.992;2023-08-07T04:48:14;100358.94;;;18.08;77.75
23433;BME280;41331;45.412;10.992;2023-08-07T04:50:42;100360.56;;;18.13;79.49
23433;BME280;41331;45.412;10.992;2023-08-07T04:53:09;100362.56;;;18.19;79.37
23433;BME280;41331;45.412;10.992;2023-08-07T04:55:38;100368.91;;;18.27;78.88
23433;BME280;41331;45.412;10.992;2023-08-07T04:58:05;100368.66;;;18.46;78.98
23433;BME280;41331;45.412;10.992;2023-08-07T05:00:33;100375.88;;;18.65;79.37
23433;BME280;41331;45.412;10.992;2023-08-07T05:03:00;100372.03;;;18.77;79.63
23433;BME280;41331;45.412;10.992;2023-08-07T05:05:29;100382.25;;;18.69;78.86
23433;BME280;41331;45.412;10.992;2023-08-07T05:07:58;100377.44;;;18.66;81.55
23433;BME280;41331;45.412;10.992;2023-08-07T05:10:26;100375.25;;;18.89;80.93
23433;BME280;41331;45.412;10.992;2023-08-07T05:12:53;100381.59;;;18.97;80.98
23433;BME280;41331;45.412;10.992;2023-08-07T05:15:23;100383.63;;;19.11;77.21
23433;BME280;41331;45.412;10.992;2023-08-07T05:17:51;100378.97;;;19.29;75.93
23433;BME280;41331;45.412;10.992;2023-08-07T05:20:19;100383.72;;;19.32;73.41
23433;BME280;41331;45.412;10.992;2023-08-07T05:22:47;100386.91;;;19.41;71.16
23433;BME280;41331;45.412;10.992;2023-08-07T05:25:15;100382.94;;;19.28;70.85
23433;BME280;41331;45.412;10.992;2023-08-07T05:27:44;100382.16;;;19.35;71.06
23433;BME280;41331;45.412;10.992;2023-08-07T05:30:12;100385.03;;;19.63;70.33
23433;BME280;41331;45.412;10.992;2023-08-07T05:32:40;100393.63;;;19.51;71.51
23433;BME280;41331;45.412;10.992;2023-08-07T05:35:07;100395.22;;;19.49;73.33
23433;BME280;41331;45.412;10.992;2023-08-07T05:37:36;100400.72;;;19.45;73.63
23433;BME280;41331;45.412;10.992;2023-08-07T05:40:05;100394.81;;;19.50;74.17
23433;BME280;41331;45.412;10.992;2023-08-07T05:42:35;100394.09;;;19.60;73.54
23433;BME280;41331;45.412;10.992;2023-08-07T05:45:03;100398.44;;;19.61;72.09
23433;BME280;41331;45.412;10.992;2023-08-07T05:47:32;100408.28;;;19.62;71.79
23433;BME280;41331;45.412;10.992;2023-08-07T05:50:00;100406.69;;;19.58;72.01
23433;BME280;41331;45.412;10.992;2023-08-07T05:52:30;100409.13;;;19.74;71.55
23433;BME280;41331;45.412;10.992;2023-08-07T05:55:00;100413.47;;;19.78;68.89
23433;BME280;41331;45.412;10.992;2023-08-07T05:57:27;100409.53;;;19.97;67.38
23433;BME280;41331;45.412;10.992;2023-08-07T05:59:55;100408.75;;;20.07;63.02
23433;BME280;41331;45.412;10.992;2023-08-07T06:02:22;100410.75;;;20.42;60.63
23433;BME280;41331;45.412;10.992;2023-08-07T06:04:50;100414.28;;;20.32;62.84
23433;BME280;41331;45.412;10.992;2023-08-07T06:07:17;100416.69;;;20.44;62.68
23433;BME280;41331;45.412;10.992;2023-08-07T06:09:45;100410.34;;;20.76;57.53
23433;BME280;41331;45.412;10.992;2023-08-07T06:12:12;100420.25;;;20.59;61.08
23433;BME280;41331;45.412;10.992;2023-08-07T06:14:41;100422.59;;;20.39;63.14
23433;BME280;41331;45.412;10.992;2023-08-07T06:17:09;100423.78;;;20.31;62.47
23433;BME280;41331;45.412;10.992;2023-08-07T06:19:36;100420.22;;;20.16;64.33
23433;BME280;41331;45.412;10.992;2023-08-07T06:22:05;100425.34;;;19.93;65.47
23433;BME280;41331;45.412;10.992;2023-08-07T06:24:32;100425.72;;;19.91;68.05
23433;BME280;41331;45.412;10.992;2023-08-07T06:26:59;100421.81;;;20.03;68.17
23433;BME280;41331;45.412;10.992;2023-08-07T06:29:27;100421.81;;;20.28;68.65
23433;BME280;41331;45.412;10.992;2023-08-07T06:31:54;100420.63;;;20.43;64.20
23433;BME280;41331;45.412;10.992;2023-08-07T06:34:22;100424.16;;;20.80;62.79
23433;BME280;41331;45.412;10.992;2023-08-07T06:36:50;100418.84;;;21.46;60.92
23433;BME280;41331;45.412;10.992;2023-08-07T06:39:18;100427.53;;;22.63;55.42
23433;BME280;41331;45.412;10.992;2023-08-07T06:41:45;100424.28;;;22.75;56.38
23433;BME280;41331;45.412;10.992;2023-08-07T06:44:14;100424.84;;;23.65;53.36
23433;BME280;41331;45.412;10.992;2023-08-07T06:46:42;100424.00;;;24.22;51.40
23433;BME280;41331;45.412;10.992;2023-08-07T06:49:09;100420.19;;;24.83;52.07
23433;BME280;41331;45.412;10.992;2023-08-07T06:51:36;100417.56;;;24.52;52.03
23433;BME280;41331;45.412;10.992;2023-08-07T06:54:04;100420.97;;;24.84;50.19
23433;BME280;41331;45.412;10.992;2023-08-07T06:56:31;100425.50;;;24.74;48.61
23433;BME280;41331;45.412;10.992;2023-08-07T06:58:59;100438.94;;;24.32;48.56
23433;BME280;41331;45.412;10.992;2023-08-07T07:01:26;100438.31;;;23.94;51.93
23433;BME280;41331;45.412;10.992;2023-08-07T07:03:55;100428.78;;;24.22;50.14
23433;BME280;41331;45.412;10.992;2023-08-07T07:06:22;100424.59;;;24.61;48.63
23433;BME280;41331;45.412;10.992;2023-08-07T07:08:53;100433.03;;;24.03;49.23
23433;BME280;41331;45.412;10.992;2023-08-07T07:11:23;100432.75;;;23.94;50.10
23433;BME280;41331;45.412;10.992;2023-08-07T07:13:52;100432.06;;;23.90;52.44
23433;BME280;41331;45.412;10.992;2023-08-07T07:16:20;100438.75;;;23.92;53.19
23433;BME280;41331;45.412;10.992;2023-08-07T07:18:50;100438.81;;;24.16;52.44
23433;BME280;41331;45.412;10.992;2023-08-07T07:21:18;100441.50;;;24.19;53.46
23433;BME280;41331;45.412;10.992;2023-08-07T07:23:45;100447.88;;;24.20;50.50
23433;BME280;41331;45.412;10.992;2023-08-07T07:26:13;100448.22;;;24.49;51.58
23433;BME280;41331;45.412;10.992;2023-08-07T07:28:40;100447.91;;;24.90;51.50
23433;BME280;41331;45.412;10.992;2023-08-07T07:31:07;100448.59;;;24.94;51.60
23433;BME280;41331;45.412;10.992;2023-08-07T07:33:38;100441.22;;;25.08;53.47
23433;BME280;41331;45.412;10.992;2023-08-07T07:36:14;100438.44;;;25.47;47.94
23433;BME280;41331;45.412;10.992;2023-08-07T07:38:42;100449.53;;;25.11;49.46
23433;BME280;41331;45.412;10.992;2023-08-07T07:41:14;100447.03;;;25.37;49.75
23433;BME280;41331;45.412;10.992;2023-08-07T07:43:41;100450.28;;;25.71;47.44
23433;BME280;41331;45.412;10.992;2023-08-07T07:46:10;100459.47;;;24.65;46.36
23433;BME280;41331;45.412;10.992;2023-08-07T07:48:37;100455.59;;;24.36;44.94
23433;BME280;41331;45.412;10.992;2023-08-07T07:51:05;100451.03;;;25.16;45.76
23433;BME280;41331;45.412;10.992;2023-08-07T07:53:32;100461.38;;;25.15;43.17
23433;BME280;41331;45.412;10.992;2023-08-07T07:56:00;100457.94;;;25.08;41.18
23433;BME280;41331;45.412;10.992;2023-08-07T07:58:28;100458.50;;;25.39;37.69
23433;BME280;41331;45.412;10.992;2023-08-07T08:00:55;100454.06;;;25.81;37.27
23433;BME280;41331;45.412;10.992;2023-08-07T08:03:23;100453.72;;;25.95;36.31
23433;BME280;41331;45.412;10.992;2023-08-07T08:05:52;100459.41;;;26.08;34.93
23433;BME280;41331;45.412;10.992;2023-08-07T08:08:19;100448.38;;;26.53;31.60
23433;BME280;41331;45.412;10.992;2023-08-07T08:10:47;100458.91;;;26.78;33.92
23433;BME280;41331;45.412;10.992;2023-08-07T08:13:15;100459.13;;;25.86;30.81
23433;BME280;41331;45.412;10.992;2023-08-07T08:15:44;100461.28;;;25.78;28.69
23433;BME280;41331;45.412;10.992;2023-08-07T08:18:12;100464.97;;;25.92;32.72
23433;BME280;41331;45.412;10.992;2023-08-07T08:20:39;100455.72;;;25.78;30.95
23433;BME280;41331;45.412;10.992;2023-08-07T08:23:07;100459.16;;;26.19;31.44
23433;BME280;41331;45.412;10.992;2023-08-07T08:25:34;100464.44;;;25.41;33.06
23433;BME280;41331;45.412;10.992;2023-08-07T08:28:02;100466.13;;;24.48;35.38
23433;BME280;41331;45.412;10.992;2023-08-07T08:30:29;100470.69;;;24.08;35.92
23433;BME280;41331;45.412;10.992;2023-08-07T08:32:57;100472.00;;;24.26;35.73
23433;BME280;41331;45.412;10.992;2023-08-07T08:35:24;100468.81;;;24.75;36.35
23433;BME280;41331;45.412;10.992;2023-08-07T08:37:52;100470.31;;;25.46;35.46
23433;BME280;41331;45.412;10.992;2023-08-07T08:40:19;100476.22;;;26.04;34.19
23433;BME280;41331;45.412;10.992;2023-08-07T08:42:47;100470.41;;;26.15;35.26
23433;BME280;41331;45.412;10.992;2023-08-07T08:45:14;100477.84;;;26.22;34.17
23433;BME280;41331;45.412;10.992;2023-08-07T08:47:43;100478.09;;;26.60;31.56
23433;BME280;41331;45.412;10.992;2023-08-07T08:50:14;100488.31;;;26.50;34.32
23433;BME280;41331;45.412;10.992;2023-08-07T08:52:44;100488.16;;;27.19;31.10
23433;BME280;41331;45.412;10.992;2023-08-07T08:55:13;100492.41;;;27.53;29.50
23433;BME280;41331;45.412;10.992;2023-08-07T08:57:41;100491.69;;;27.78;30.32
23433;BME280;41331;45.412;10.992;2023-08-07T09:00:09;100488.91;;;27.78;29.71
23433;BME280;41331;45.412;10.992;2023-08-07T09:02:49;100485.34;;;28.03;30.47
23433;BME280;41331;45.412;10.992;2023-08-07T09:05:19;100484.88;;;28.04;27.51
23433;BME280;41331;45.412;10.992;2023-08-07T09:07:48;100483.09;;;28.36;30.17
23433;BME280;41331;45.412;10.992;2023-08-07T09:10:16;100490.59;;;28.13;26.24
23433;BME280;41331;45.412;10.992;2023-08-07T09:13:03;100486.94;;;28.42;27.47
23433;BME280;41331;45.412;10.992;2023-08-07T09:15:33;100488.47;;;28.18;28.96
23433;BME280;41331;45.412;10.992;2023-08-07T09:18:03;100486.31;;;28.73;27.53
23433;BME280;41331;45.412;10.992;2023-08-07T09:20:35;100484.88;;;28.55;27.42
23433;BME280;41331;45.412;10.992;2023-08-07T09:23:06;100481.88;;;28.50;28.56
23433;BME280;41331;45.412;10.992;2023-08-07T09:25:36;100491.59;;;28.58;28.67
23433;BME280;41331;45.412;10.992;2023-08-07T09:28:05;100488.81;;;28.45;29.05
23433;BME280;41331;45.412;10.992;2023-08-07T09:30:34;100484.81;;;28.81;28.08
23433;BME280;41331;45.412;10.992;2023-08-07T09:33:03;100492.81;;;28.70;27.27
23433;BME280;41331;45.412;10.992;2023-08-07T09:35:31;100502.28;;;28.85;28.85
23433;BME280;41331;45.412;10.992;2023-08-07T09:37:59;100490.50;;;28.90;28.92
23433;BME280;41331;45.412;10.992;2023-08-07T09:40:27;100496.22;;;29.21;26.60
23433;BME280;41331;45.412;10.992;2023-08-07T09:42:56;100498.72;;;29.19;27.57
23433;BME280;41331;45.412;10.992;2023-08-07T09:45:26;100500.81;;;29.28;27.56
23433;BME280;41331;45.412;10.992;2023-08-07T09:48:02;100504.06;;;29.26;27.11
23433;BME280;41331;45.412;10.992;2023-08-07T09:50:30;100504.72;;;29.52;26.17
23433;BME280;41331;45.412;10.992;2023-08-07T09:52:59;100499.28;;;29.80;26.42
23433;BME280;41331;45.412;10.992;2023-08-07T09:55:27;100502.44;;;29.38;25.90
23433;BME280;41331;45.412;10.992;2023-08-07T09:57:54;100500.25;;;29.55;26.57
23433;BME280;41331;45.412;10.992;2023-08-07T10:00:22;100496.47;;;30.51;26.73
23433;BME280;41331;45.412;10.992;2023-08-07T10:02:50;100501.38;;;30.20;26.86
23433;BME280;41331;45.412;10.992;2023-08-07T10:05:18;100495.66;;;29.70;26.02
23433;BME280;41331;45.412;10.992;2023-08-07T10:07:50;100493.69;;;29.80;26.69
23433;BME280;41331;45.412;10.992;2023-08-07T10:10:18;100483.38;;;30.48;26.37
23433;BME280;41331;45.412;10.992;2023-08-07T10:12:46;100493.63;;;30.42;25.85
23433;BME280;41331;45.412;10.992;2023-08-07T10:15:15;100498.25;;;30.17;26.75
23433;BME280;41331;45.412;10.992;2023-08-07T10:17:43;100492.50;;;29.90;28.28
23433;BME280;41331;45.412;10.992;2023-08-07T10:20:12;100494.25;;;30.28;26.79
23433;BME280;41331;45.412;10.992;2023-08-07T10:22:40;100488.63;;;30.28;26.73
23433;BME280;41331;45.412;10.992;2023-08-07T10:25:09;100492.44;;;29.81;27.36
23433;BME280;41331;45.412;10.992;2023-08-07T10:27:39;100488.00;;;29.92;29.00
23433;BME280;41331;45.412;10.992;2023-08-07T10:30:10;100484.56;;;30.29;27.46
23433;BME280;41331;45.412;10.992;2023-08-07T10:32:42;100484.13;;;29.99;28.81
23433;BME280;41331;45.412;10.992;2023-08-07T10:35:26;100491.94;;;30.44;28.88
23433;BME280;41331;45.412;10.992;2023-08-07T10:38:10;100485.69;;;30.40;27.47
23433;BME280;41331;45.412;10.992;2023-08-07T10:41:10;100490.28;;;30.65;27.63
23433;BME280;41331;45.412;10.992;2023-08-07T10:43:43;100489.81;;;30.58;26.05
23433;BME280;41331;45.412;10.992;2023-08-07T10:46:14;100493.25;;;30.22;25.75
23433;BME280;41331;45.412;10.992;2023-08-07T10:48:44;100498.81;;;30.43;26.39
23433;BME280;41331;45.412;10.992;2023-08-07T10:51:17;100491.63;;;30.02;24.96
23433;BME280;41331;45.412;10.992;2023-08-07T10:53:46;100496.84;;;30.22;27.39
23433;BME280;41331;45.412;10.992;2023-08-07T10:56:34;100497.75;;;30.59;27.48
23433;BME280;41331;45.412;10.992;2023-08-07T10:59:11;100491.13;;;30.35;25.75
23433;BME280;41331;45.412;10.992;2023-08-07T11:01:42;100484.59;;;30.38;24.36
23433;BME280;41331;45.412;10.992;2023-08-07T11:04:12;100479.75;;;29.67;24.47
23433;BME280;41331;45.412;10.992;2023-08-07T11:06:40;100485.69;;;30.40;24.71
23433;BME280;41331;45.412;10.992;2023-08-07T11:09:09;100489.13;;;30.04;25.82
23433;BME280;41331;45.412;10.992;2023-08-07T11:11:48;100490.97;;;29.98;26.60
23433;BME280;41331;45.412;10.992;2023-08-07T11:14:17;100482.41;;;30.02;24.52
23433;BME280;41331;45.412;10.992;2023-08-07T11:16:47;100482.81;;;30.22;24.86
23433;BME280;41331;45.412;10.992;2023-08-07T11:19:16;100469.97;;;30.61;24.04
23433;BME280;41331;45.412;10.992;2023-08-07T11:21:44;100475.72;;;30.39;25.71
23433;BME280;41331;45.412;10.992;2023-08-07T11:24:13;100477.25;;;30.40;24.00
23433;BME280;41331;45.412;10.992;2023-08-07T11:26:42;100478.63;;;30.85;23.45
23433;BME280;41331;45.412;10.992;2023-08-07T11:29:10;100469.34;;;30.57;25.25
23433;BME280;41331;45.412;10.992;2023-08-07T11:31:42;100469.50;;;30.54;26.20
23433;BME280;41331;45.412;10.992;2023-08-07T11:34:10;100472.31;;;30.54;25.05
23433;BME280;41331;45.412;10.992;2023-08-07T11:36:41;100471.22;;;30.60;24.64
23433;BME280;41331;45.412;10.992;2023-08-07T11:39:10;100466.03;;;30.40;25.15
23433;BME280;41331;45.412;10.992;2023-08-07T11:41:38;100460.44;;;30.50;26.46
23433;BME280;41331;45.412;10.992;2023-08-07T11:44:09;100457.84;;;30.92;24.65
23433;BME280;41331;45.412;10.992;2023-08-07T11:46:36;100462.38;;;30.71;24.05
23433;BME280;41331;45.412;10.992;2023-08-07T11:49:04;100458.47;;;31.05;22.24
23433;BME280;41331;45.412;10.992;2023-08-07T11:51:32;100468.94;;;30.86;22.54
23433;BME280;41331;45.412;10.992;2023-08-07T11:54:00;100465.56;;;30.33;22.76
23433;BME280;41331;45.412;10.992;2023-08-07T11:56:29;100465.13;;;30.43;23.21
23433;BME280;41331;45.412;10.992;2023-08-07T11:58:57;100471.09;;;30.82;22.66
23433;BME280;41331;45.412;10.992;2023-08-07T12:01:26;100477.47;;;30.55;22.03
23433;BME280;41331;45.412;10.992;2023-08-07T12:04:09;100474.66;;;30.64;22.16
23433;BME280;41331;45.412;10.992;2023-08-07T12:06:37;100472.59;;;30.47;21.44
23433;BME280;41331;45.412;10.992;2023-08-07T12:09:07;100482.78;;;30.53;22.82
23433;BME280;41331;45.412;10.992;2023-08-07T12:11:40;100478.00;;;29.91;25.28
23433;BME280;41331;45.412;10.992;2023-08-07T12:14:08;100489.44;;;30.37;24.77
23433;BME280;41331;45.412;10.992;2023-08-07T12:16:35;100481.81;;;30.56;24.77
23433;BME280;41331;45.412;10.992;2023-08-07T12:19:03;100492.56;;;30.39;22.54
23433;BME280;41331;45.412;10.992;2023-08-07T12:21:31;100479.78;;;30.57;23.08
23433;BME280;41331;45.412;10.992;2023-08-07T12:24:00;100475.03;;;30.94;22.91
23433;BME280;41331;45.412;10.992;2023-08-07T12:26:28;100488.78;;;30.83;21.57
23433;BME280;41331;45.412;10.992;2023-08-07T12:28:55;100485.94;;;30.74;22.68
23433;BME280;41331;45.412;10.992;2023-08-07T12:31:23;100480.94;;;30.87;23.47
23433;BME280;41331;45.412;10.992;2023-08-07T12:33:50;100480.63;;;30.76;24.45
23433;BME280;41331;45.412;10.992;2023-08-07T12:36:19;100478.28;;;31.02;23.84
23433;BME280;41331;45.412;10.992;2023-08-07T12:38:47;100478.47;;;30.80;23.80
23433;BME280;41331;45.412;10.992;2023-08-07T12:41:15;100470.66;;;30.84;25.27
23433;BME280;41331;45.412;10.992;2023-08-07T12:43:45;100467.53;;;30.91;24.97
23433;BME280;41331;45.412;10.992;2023-08-07T12:46:12;100468.75;;;31.17;24.63
23433;BME280;41331;45.412;10.992;2023-08-07T12:48:43;100473.41;;;30.65;23.70
23433;BME280;41331;45.412;10.992;2023-08-07T12:51:10;100471.44;;;30.84;23.88
23433;BME280;41331;45.412;10.992;2023-08-07T12:53:38;100475.34;;;30.96;23.83
23433;BME280;41331;45.412;10.992;2023-08-07T12:56:05;100474.25;;;30.75;23.48
23433;BME280;41331;45.412;10.992;2023-08-07T12:58:33;100470.44;;;30.60;22.83
23433;BME280;41331;45.412;10.992;2023-08-07T13:01:02;100476.50;;;30.40;25.32